Lakewood, Colorado
Current Conditions -  °F | °C
As of 3:54 AM on Friday 19 Dec 2014 (Local Time) from KBJC Reporting Station
Haze Haze  
Wind Chill: -3°   Ceiling: Unl
Heat Index: -3°   Visibility: 5mi
Dew Point: -5°   Wind: 0mph
Humidity: 86%   Direction: NA
Pressure: 30.05"   Gusts: NA
Location:  39.71°N, 105.08°W
Report Text: KBJC 191054Z AUTO 00000KT 5SM BR CLR M03/M05 A3005 RMK AO2
Loading
Personal Weather Stations






























Interactive Weather Map New forecast layout! Learn more

10-Day Weather Forecast

Advertisements
Track Severe Weather on mobile